CPR2 weather

Ottawa / Embrun Airport
Embrun, Ontario, Canada

Public forecast

Using degrees Celsius for public forecast. Weather courtesy of forecast.io.

Closest aviation weather report (METAR) to Ottawa / Embrun Airport

Closest report is Ottawa Macdonald-Cartier International Airport, 16.4 nm (30.4 km) WNW. Retrieved 2019/12/10 16:15 UTC (0 seconds ago):

CYOW 101615Z 30016G24KT 15SM FEW020 BKN036 02/M01 A2964 RMK SC2SC5 WSHFT 1600 PRESRR SLP043

Closest aviation forecast (TAF) to Ottawa / Embrun Airport

Closest forecast is Ottawa Macdonald-Cartier International Airport, 16.4 nm (30.4 km) WNW. Retrieved 2019/12/10 15:00 UTC (1 hour ago):

TAF CYOW 101438Z 1015/1112 25015G25KT P6SM FEW020 BKN050 TEMPO 1016/1018 6SM -SHRASN BKN020 OVC050 FM101800 26015G25KT P6SM BKN030 TEMPO 1018/1021 5SM -SHSN BECMG 1018/1020 29015G25KT FM102100 30012G22KT P6SM BKN030 FM102300 31012KT P6SM SCT030 BECMG 1106/1108 VRB03KT RMK NXT FCST BY 101800Z